Time;durP1;ratioP1;P1;durP2;ratioP2;P2;SDS_P1;SDS_P2;PMS_P1;PMS_P2;Temp;Humidity;BMP_temperature;BMP_pressure;BME280_temperature;BME280_humidity;BME280_pressure;Samples;Min_cycle;Max_cycle;Signal;HPM_P1;HPM_P2
2022/07/22 00:01:52;;;;;;;11.13;2.95;;;16.00;99.90;;;;;;5014051;28;20053;-50
2022/07/22 00:04:18;;;;;;;7.97;2.60;;;16.00;99.90;;;;;;5011850;28;20048;-48
2022/07/22 00:06:45;;;;;;;10.75;3.08;;;16.00;99.90;;;;;;5047841;28;20041;-52
2022/07/22 00:09:12;;;;;;;9.50;3.13;;;16.10;99.90;;;;;;5031031;28;20049;-50
2022/07/22 00:11:55;;;;;;;8.05;2.88;;;16.00;99.90;;;;;;5010061;28;20122;-49
2022/07/22 00:14:22;;;;;;;7.50;2.65;;;16.00;99.90;;;;;;4991567;28;20051;-52
2022/07/22 00:16:49;;;;;;;8.90;2.33;;;16.00;99.90;;;;;;5018461;28;20045;-47
2022/07/22 00:19:15;;;;;;;12.35;2.67;;;16.00;99.90;;;;;;5015811;28;20151;-49
2022/07/22 00:21:42;;;;;;;11.35;2.80;;;16.00;99.90;;;;;;5014994;28;20058;-52
2022/07/22 00:24:09;;;;;;;9.02;2.53;;;16.00;99.90;;;;;;5039681;28;20103;-45
2022/07/22 00:26:35;;;;;;;12.88;2.85;;;15.90;99.90;;;;;;5009360;28;20143;-49
2022/07/22 00:29:02;;;;;;;7.20;2.45;;;16.00;99.90;;;;;;5012124;28;20124;-52
2022/07/22 00:31:30;;;;;;;12.38;2.90;;;16.00;99.90;;;;;;5010001;28;20041;-49
2022/07/22 00:34:03;;;;;;;9.10;3.35;;;16.00;99.90;;;;;;4997588;28;20104;-47
2022/07/22 00:36:30;;;;;;;9.77;2.53;;;16.00;99.90;;;;;;5007870;28;20088;-44
2022/07/22 00:38:57;;;;;;;11.07;3.17;;;16.00;99.90;;;;;;5008399;28;20523;-49
2022/07/22 00:41:29;;;;;;;8.85;2.63;;;16.00;99.90;;;;;;5002113;28;20056;-52
2022/07/22 00:44:03;;;;;;;12.27;2.90;;;15.90;99.90;;;;;;5005938;28;20054;-49
2022/07/22 00:46:33;;;;;;;;;;;16.00;99.90;;;;;;4970904;28;20057;-48
2022/07/22 00:49:09;;;;;;;11.10;3.00;;;16.00;99.90;;;;;;5005271;28;19932;-50
2022/07/22 00:51:39;;;;;;;7.50;3.20;;;16.00;99.90;;;;;;5019295;28;20470;-53
2022/07/22 00:54:15;;;;;;;11.68;3.63;;;16.00;99.90;;;;;;5017150;28;20126;-50
2022/07/22 00:56:43;;;;;;;11.80;3.15;;;16.00;99.90;;;;;;5014073;28;20050;-47
2022/07/22 00:59:14;;;;;;;8.90;2.95;;;15.90;99.90;;;;;;5004945;28;20056;-49
2022/07/22 01:01:41;;;;;;;10.23;2.60;;;16.00;99.90;;;;;;5002868;28;20045;-50
2022/07/22 01:04:24;;;;;;;15.02;3.95;;;15.90;99.90;;;;;;4980486;28;20058;-52
2022/07/22 01:06:51;;;;;;;13.65;3.38;;;16.00;99.90;;;;;;4962869;28;20592;-51
2022/07/22 01:09:20;;;;;;;8.82;3.30;;;16.00;99.90;;;;;;4950170;28;20053;-52
2022/07/22 01:11:49;;;;;;;8.25;3.47;;;16.00;99.90;;;;;;4967052;28;20101;-49
2022/07/22 01:14:16;;;;;;;10.07;3.65;;;15.90;99.90;;;;;;4971911;28;20046;-52
2022/07/22 01:16:54;;;;;;;11.10;3.35;;;15.90;99.90;;;;;;4984471;28;20092;-51
2022/07/22 01:19:21;;;;;;;9.02;2.63;;;16.00;99.90;;;;;;4952245;28;20046;-50
2022/07/22 01:21:50;;;;;;;12.63;3.42;;;15.90;99.90;;;;;;4967115;28;20061;-49
2022/07/22 01:24:19;;;;;;;9.30;2.88;;;15.90;99.90;;;;;;4981914;28;20591;-51
2022/07/22 01:26:45;;;;;;;7.18;2.40;;;15.90;99.90;;;;;;4956732;28;20134;-52
2022/07/22 01:29:11;;;;;;;10.23;3.42;;;15.90;99.90;;;;;;4977903;28;20055;-52
2022/07/22 01:31:40;;;;;;;12.20;2.58;;;15.90;99.90;;;;;;4969664;28;20058;-61
2022/07/22 01:34:06;;;;;;;9.13;2.80;;;15.90;99.90;;;;;;4940092;28;20133;-53
2022/07/22 01:36:33;;;;;;;10.23;3.10;;;15.90;99.90;;;;;;4960940;28;20567;-50
2022/07/22 01:39:03;;;;;;;7.95;2.70;;;15.90;99.90;;;;;;4985125;28;20552;-51
2022/07/22 01:41:30;;;;;;;10.00;3.17;;;15.90;99.90;;;;;;4987060;28;20049;-51
2022/07/22 01:44:00;;;;;;;7.47;2.85;;;16.00;99.90;;;;;;5025145;28;20136;-50
2022/07/22 01:46:28;;;;;;;8.75;3.30;;;16.00;99.90;;;;;;5023915;28;20507;-49
2022/07/22 01:49:08;;;;;;;11.57;2.70;;;15.90;99.90;;;;;;5043783;28;20080;-48
2022/07/22 01:51:50;;;;;;;9.40;2.95;;;16.00;99.90;;;;;;5025069;28;20061;-47
2022/07/22 01:54:20;;;;;;;10.27;2.67;;;16.00;99.90;;;;;;5007597;28;20459;-52
2022/07/22 01:56:47;;;;;;;9.95;3.17;;;15.90;99.90;;;;;;5015716;28;20059;-49
2022/07/22 01:59:13;;;;;;;7.63;2.47;;;16.00;99.90;;;;;;4994347;28;20061;-49
2022/07/22 02:01:46;;;;;;;10.45;3.00;;;16.00;99.90;;;;;;4999139;28;20136;-51
2022/07/22 02:04:13;;;;;;;10.20;2.88;;;15.90;99.90;;;;;;4996556;28;20064;-46
2022/07/22 02:06:41;;;;;;;14.32;3.08;;;16.00;99.90;;;;;;5000927;28;20666;-50
2022/07/22 02:09:08;;;;;;;8.10;2.88;;;15.90;99.90;;;;;;5031241;28;20377;-49
2022/07/22 02:11:43;;;;;;;10.88;2.83;;;15.90;99.90;;;;;;5011116;28;20041;-53
2022/07/22 02:14:09;;;;;;;10.75;3.10;;;15.90;99.90;;;;;;5001657;28;20632;-53
2022/07/22 02:16:37;;;;;;;9.68;3.47;;;15.90;99.90;;;;;;5043035;28;20119;-48
2022/07/22 02:19:03;;;;;;;8.85;3.13;;;15.90;99.90;;;;;;5016439;28;20053;-50
2022/07/22 02:21:30;;;;;;;6.35;2.83;;;15.90;99.90;;;;;;4990883;28;20053;-48
2022/07/22 02:23:57;;;;;;;9.55;3.00;;;15.80;99.90;;;;;;5017204;28;20053;-49
2022/07/22 02:26:24;;;;;;;6.38;2.55;;;15.80;99.90;;;;;;5025681;28;20057;-50
2022/07/22 02:28:53;;;;;;;10.00;3.15;;;15.80;99.90;;;;;;5030631;28;20068;-51
2022/07/22 02:31:20;;;;;;;11.70;2.72;;;15.80;99.90;;;;;;5018636;28;20381;-53
2022/07/22 02:33:47;;;;;;;7.63;2.42;;;15.80;99.90;;;;;;5023016;28;20046;-53
2022/07/22 02:36:20;;;;;;;12.00;3.05;;;15.80;99.90;;;;;;5017644;28;20083;-50
2022/07/22 02:38:50;;;;;;;;;;;15.90;99.90;;;;;;5010173;28;20049;-51
2022/07/22 02:41:16;;;;;;;8.88;3.13;;;15.80;99.90;;;;;;4999018;28;19964;-48
2022/07/22 02:43:42;;;;;;;9.25;3.00;;;15.80;99.90;;;;;;5052196;28;20057;-52
2022/07/22 02:46:11;;;;;;;9.50;2.92;;;15.80;99.90;;;;;;5015744;28;20046;-48
2022/07/22 02:48:47;;;;;;;7.10;3.10;;;15.80;99.90;;;;;;5014109;28;20049;-54
2022/07/22 02:51:18;;;;;;;6.05;2.67;;;15.80;99.90;;;;;;4993551;28;20507;-50
2022/07/22 02:53:50;;;;;;;7.30;2.70;;;15.80;99.90;;;;;;5015771;28;20045;-49
2022/07/22 02:56:19;;;;;;;9.85;3.28;;;15.80;99.90;;;;;;5046187;28;20130;-49
2022/07/22 02:58:52;;;;;;;10.65;3.13;;;15.80;99.90;;;;;;5013197;28;20456;-50
2022/07/22 03:01:22;;;;;;;12.80;3.30;;;15.80;99.90;;;;;;5003136;28;20145;-48
2022/07/22 03:03:48;;;;;;;9.43;2.97;;;15.80;99.90;;;;;;5037286;28;20052;-54
2022/07/22 03:06:14;;;;;;;9.57;2.70;;;15.80;99.90;;;;;;5023839;28;20063;-53
2022/07/22 03:08:41;;;;;;;5.55;2.58;;;15.80;99.90;;;;;;5033417;28;20044;-53
2022/07/22 03:11:10;;;;;;;6.38;2.67;;;15.80;99.90;;;;;;5033549;28;20060;-49
2022/07/22 03:13:38;;;;;;;10.57;2.90;;;15.80;99.90;;;;;;5017275;28;20049;-51
2022/07/22 03:16:05;;;;;;;6.75;3.20;;;15.70;99.90;;;;;;5051608;28;20048;-51
2022/07/22 03:18:31;;;;;;;6.90;2.55;;;15.80;99.90;;;;;;5029799;28;20053;-47
2022/07/22 03:20:57;;;;;;;8.85;2.70;;;15.80;99.90;;;;;;5026942;28;20049;-50
2022/07/22 03:23:24;;;;;;;7.68;3.08;;;15.70;99.90;;;;;;5027224;28;20048;-49
2022/07/22 03:25:53;;;;;;;6.72;2.60;;;15.70;99.90;;;;;;5031533;28;20053;-52
2022/07/22 03:28:23;;;;;;;6.68;3.63;;;15.70;99.90;;;;;;5034066;28;20065;-49
2022/07/22 03:30:53;;;;;;;6.10;2.58;;;15.70;99.90;;;;;;5014968;28;20045;-52
2022/07/22 03:33:19;;;;;;;7.70;2.70;;;15.70;99.90;;;;;;5033812;28;20411;-48
2022/07/22 03:35:50;;;;;;;8.20;3.05;;;15.70;99.90;;;;;;5033776;28;20060;-50
2022/07/22 03:38:20;;;;;;;9.02;2.67;;;15.70;99.90;;;;;;4979216;28;20061;-53
2022/07/22 03:40:47;;;;;;;10.30;2.97;;;15.70;99.90;;;;;;5020253;28;20045;-47
2022/07/22 03:43:13;;;;;;;11.02;3.20;;;15.70;99.90;;;;;;5004816;28;20111;-53
2022/07/22 03:45:50;;;;;;;8.25;2.65;;;15.70;99.90;;;;;;5013124;28;20578;-48
2022/07/22 03:48:18;;;;;;;6.93;2.70;;;15.70;99.90;;;;;;5026707;28;20060;-50
2022/07/22 03:50:51;;;;;;;6.93;2.90;;;15.70;99.90;;;;;;5029450;28;20076;-52
2022/07/22 03:53:24;;;;;;;6.90;2.55;;;15.70;99.90;;;;;;5016950;28;20055;-49
2022/07/22 03:55:51;;;;;;;8.70;2.90;;;15.70;99.90;;;;;;5015072;28;20483;-52
2022/07/22 03:58:18;;;;;;;7.90;2.53;;;15.70;99.90;;;;;;5019260;28;20481;-52
2022/07/22 04:00:48;;;;;;;6.57;2.80;;;15.70;99.90;;;;;;5046581;28;20074;-50
2022/07/22 04:03:16;;;;;;;7.05;3.20;;;15.70;99.90;;;;;;5050000;28;20128;-54
2022/07/22 04:05:43;;;;;;;7.22;2.72;;;15.70;99.90;;;;;;5016752;28;20052;-51
2022/07/22 04:08:09;;;;;;;8.38;2.40;;;15.70;99.90;;;;;;5043493;28;20041;-49
2022/07/22 04:10:36;;;;;;;6.07;2.30;;;15.70;99.90;;;;;;4997299;28;20061;-53
2022/07/22 04:13:03;;;;;;;5.72;2.45;;;15.70;99.90;;;;;;5027100;28;20198;-52
2022/07/22 04:15:29;;;;;;;4.45;2.35;;;15.70;99.90;;;;;;5030149;28;20539;-50
2022/07/22 04:17:56;;;;;;;7.95;2.53;;;15.70;99.90;;;;;;5002038;28;20052;-51
2022/07/22 04:20:29;;;;;;;4.72;2.22;;;15.70;99.90;;;;;;5029155;28;20057;-51
2022/07/22 04:22:56;;;;;;;9.68;2.75;;;15.80;99.90;;;;;;5028244;28;20049;-48
2022/07/22 04:25:22;;;;;;;8.75;3.10;;;15.70;99.90;;;;;;5019186;28;20520;-51
2022/07/22 04:27:52;;;;;;;10.60;2.92;;;15.70;99.90;;;;;;4996883;28;20170;-52
2022/07/22 04:30:20;;;;;;;6.72;2.95;;;15.70;99.90;;;;;;5021614;28;20416;-50
2022/07/22 04:32:47;;;;;;;9.20;2.58;;;15.70;99.90;;;;;;5006504;28;20396;-49
2022/07/22 04:35:13;;;;;;;8.00;2.30;;;15.80;99.90;;;;;;4996576;28;20041;-53
2022/07/22 04:37:40;;;;;;;5.93;2.72;;;15.70;99.90;;;;;;5019386;28;20041;-48
2022/07/22 04:40:12;;;;;;;7.22;2.72;;;15.80;99.90;;;;;;5042805;28;20052;-49
2022/07/22 04:42:38;;;;;;;5.30;2.30;;;15.80;99.90;;;;;;5012002;28;20584;-50
2022/07/22 04:45:05;;;;;;;6.57;2.58;;;15.80;99.90;;;;;;5046773;28;20088;-47
2022/07/22 04:47:32;;;;;;;9.00;2.78;;;15.80;99.90;;;;;;5016873;28;20499;-52
2022/07/22 04:50:05;;;;;;;6.50;2.40;;;15.80;99.90;;;;;;5026816;28;20515;-50
2022/07/22 04:52:31;;;;;;;6.63;2.60;;;15.80;99.90;;;;;;5028851;28;20139;-47
2022/07/22 04:55:03;;;;;;;5.25;2.60;;;15.80;99.90;;;;;;5026784;28;20412;-51
2022/07/22 04:57:29;;;;;;;7.22;2.55;;;15.80;99.90;;;;;;5002778;28;20042;-47
2022/07/22 04:59:55;;;;;;;6.63;2.90;;;15.80;99.90;;;;;;5012353;28;20056;-49
2022/07/22 05:02:23;;;;;;;9.70;3.28;;;15.90;99.90;;;;;;5028296;28;20053;-51
2022/07/22 05:04:50;;;;;;;10.95;3.50;;;15.90;99.90;;;;;;5026761;28;20391;-49
2022/07/22 05:07:17;;;;;;;5.97;3.17;;;15.90;99.90;;;;;;5020271;28;20064;-48
2022/07/22 05:09:45;;;;;;;6.00;2.80;;;15.90;99.90;;;;;;4994665;28;20311;-49
2022/07/22 05:12:20;;;;;;;3.47;2.92;;;15.90;99.90;;;;;;5014606;28;20439;-49
2022/07/22 05:14:51;;;;;;;8.38;2.88;;;15.90;99.90;;;;;;5042799;28;20049;-52
2022/07/22 05:17:16;;;;;;;6.78;2.60;;;15.90;99.90;;;;;;5028914;28;20504;-50
2022/07/22 05:19:48;;;;;;;7.97;2.70;;;15.90;99.90;;;;;;5028755;28;20079;-54
2022/07/22 05:22:14;;;;;;;6.68;2.92;;;16.00;99.90;;;;;;5018523;28;20049;-52
2022/07/22 05:24:41;;;;;;;6.55;2.65;;;16.00;99.90;;;;;;5035539;28;20563;-54
2022/07/22 05:27:10;;;;;;;7.65;3.15;;;16.00;99.90;;;;;;4993030;28;20689;-51
2022/07/22 05:29:36;;;;;;;9.68;2.63;;;16.10;99.90;;;;;;4999591;28;20056;-52
2022/07/22 05:32:03;;;;;;;8.18;2.58;;;16.10;99.90;;;;;;5025435;28;20053;-49
2022/07/22 05:34:30;;;;;;;9.35;2.50;;;16.10;99.90;;;;;;5020104;28;20045;-46
2022/07/22 05:36:56;;;;;;;13.02;3.33;;;16.10;99.90;;;;;;5010820;28;20103;-53
2022/07/22 05:39:23;;;;;;;9.00;2.45;;;16.20;99.90;;;;;;5013648;28;20487;-50
2022/07/22 05:41:56;;;;;;;7.10;2.90;;;16.30;99.90;;;;;;4991564;28;20050;-51
2022/07/22 05:44:22;;;;;;;7.03;3.17;;;16.30;99.90;;;;;;5022944;28;20052;-51
2022/07/22 05:46:49;;;;;;;10.70;2.80;;;16.40;99.90;;;;;;5010982;28;20511;-50
2022/07/22 05:49:15;;;;;;;11.13;2.78;;;16.40;99.90;;;;;;5010513;28;20106;-48
2022/07/22 05:51:42;;;;;;;6.85;2.60;;;16.50;99.90;;;;;;5003939;28;20539;-51
2022/07/22 05:54:10;;;;;;;6.82;2.28;;;16.50;99.90;;;;;;5030082;28;20045;-46
2022/07/22 05:56:38;;;;;;;7.15;2.67;;;16.50;99.90;;;;;;5045404;28;20056;-48
2022/07/22 05:59:06;;;;;;;8.13;2.67;;;16.50;99.90;;;;;;4984001;28;20551;-50
2022/07/22 06:01:32;;;;;;;8.30;2.53;;;16.60;99.90;;;;;;5032309;28;20072;-48
2022/07/22 06:03:58;;;;;;;6.00;2.55;;;16.60;99.90;;;;;;5010071;28;20604;-52
2022/07/22 06:06:24;;;;;;;8.48;2.40;;;16.70;99.90;;;;;;5008102;28;20122;-49
2022/07/22 06:08:51;;;;;;;9.90;3.05;;;16.80;99.90;;;;;;5035932;28;20045;-48
2022/07/22 06:11:19;;;;;;;12.52;2.90;;;16.80;99.90;;;;;;5023139;28;20041;-48
2022/07/22 06:13:46;;;;;;;8.43;2.55;;;16.80;99.90;;;;;;5010010;28;20064;-52
2022/07/22 06:16:15;;;;;;;7.40;2.75;;;16.80;99.90;;;;;;4996455;28;20049;-46
2022/07/22 06:18:41;;;;;;;7.57;2.10;;;16.90;99.90;;;;;;5007684;28;20045;-50
2022/07/22 06:21:09;;;;;;;6.20;2.35;;;16.90;99.90;;;;;;5024680;28;20053;-50
2022/07/22 06:23:39;;;;;;;9.27;2.38;;;17.00;99.90;;;;;;5024027;28;20460;-51
2022/07/22 06:26:15;;;;;;;6.65;2.47;;;17.00;99.90;;;;;;5025788;28;20048;-49
2022/07/22 06:28:42;;;;;;;8.13;2.15;;;17.10;99.90;;;;;;5022569;28;20479;-49
2022/07/22 06:31:14;;;;;;;9.55;2.20;;;17.20;99.90;;;;;;5023225;28;20037;-53
2022/07/22 06:33:40;;;;;;;8.27;2.40;;;17.30;99.90;;;;;;5007605;28;20154;-52
2022/07/22 06:36:11;;;;;;;9.07;2.33;;;17.30;99.90;;;;;;5003400;28;20045;-52
2022/07/22 06:38:41;;;;;;;6.07;2.25;;;17.40;99.90;;;;;;5012663;28;20544;-52
2022/07/22 06:41:10;;;;;;;6.32;2.15;;;17.40;99.90;;;;;;5020270;28;20571;-52
2022/07/22 06:43:37;;;;;;;8.50;2.30;;;17.40;99.90;;;;;;5010836;28;20461;-51
2022/07/22 06:46:06;;;;;;;8.18;2.05;;;17.50;99.90;;;;;;5026647;28;20102;-51
2022/07/22 06:48:35;;;;;;;6.85;2.28;;;17.60;99.90;;;;;;5013165;28;20238;-50
2022/07/22 06:51:04;;;;;;;6.88;1.92;;;17.60;99.90;;;;;;5023005;28;20042;-49
2022/07/22 06:53:30;;;;;;;6.38;1.90;;;17.70;99.90;;;;;;4990822;28;20041;-51
2022/07/22 06:55:56;;;;;;;6.63;2.15;;;17.70;99.90;;;;;;5004909;28;20381;-51
2022/07/22 06:58:25;;;;;;;7.28;1.98;;;17.70;99.90;;;;;;5003250;28;20073;-50
2022/07/22 07:00:52;;;;;;;7.90;2.22;;;17.80;99.90;;;;;;4965594;28;20499;-53
2022/07/22 07:03:25;;;;;;;6.20;1.52;;;17.80;99.90;;;;;;4987156;28;20054;-50
2022/07/22 07:05:55;;;;;;;4.40;1.88;;;17.90;99.90;;;;;;4976682;28;20478;-49
2022/07/22 07:08:22;;;;;;;9.60;2.00;;;17.90;99.90;;;;;;4978837;28;20507;-51
2022/07/22 07:10:48;;;;;;;7.25;1.85;;;17.90;99.90;;;;;;5001300;28;20045;-50
2022/07/22 07:13:15;;;;;;;8.77;2.38;;;17.90;99.90;;;;;;4981945;28;20118;-51
2022/07/22 07:15:44;;;;;;;8.27;2.20;;;17.90;99.90;;;;;;4968939;28;20042;-51
2022/07/22 07:18:17;;;;;;;9.07;2.38;;;18.00;99.90;;;;;;4971730;28;20405;-50
2022/07/22 07:20:45;;;;;;;5.40;1.70;;;18.00;99.90;;;;;;4987160;28;20553;-51
2022/07/22 07:23:15;;;;;;;6.00;1.92;;;18.00;99.90;;;;;;4999711;28;20476;-52
2022/07/22 07:25:41;;;;;;;6.72;2.08;;;18.10;99.90;;;;;;4970822;28;20050;-51
2022/07/22 07:28:11;;;;;;;6.80;2.05;;;18.30;99.90;;;;;;4974526;28;20517;-52
2022/07/22 07:30:47;;;;;;;10.27;2.20;;;18.30;99.90;;;;;;4961701;28;20536;-50
2022/07/22 07:33:14;;;;;;;7.15;2.25;;;18.40;99.90;;;;;;4971028;28;20137;-51
2022/07/22 07:35:41;;;;;;;6.32;2.10;;;18.50;99.90;;;;;;4954948;28;20046;-49
2022/07/22 07:38:09;;;;;;;5.50;2.10;;;18.50;99.90;;;;;;4988736;28;20445;-49
2022/07/22 07:40:39;;;;;;;5.22;1.80;;;18.60;99.90;;;;;;4955201;28;20523;-50
2022/07/22 07:43:05;;;;;;;7.35;2.10;;;18.50;99.90;;;;;;4988188;28;20050;-53
2022/07/22 07:45:36;;;;;;;8.15;2.38;;;18.60;99.90;;;;;;4976885;28;20050;-44
2022/07/22 07:48:06;;;;;;;7.78;2.58;;;18.70;99.90;;;;;;4986694;28;20416;-48
2022/07/22 07:50:33;;;;;;;5.68;1.90;;;18.80;99.90;;;;;;4980313;28;20528;-51
2022/07/22 07:52:59;;;;;;;8.98;2.20;;;18.90;99.90;;;;;;4965109;28;20050;-48
2022/07/22 07:55:26;;;;;;;7.45;2.58;;;19.10;99.90;;;;;;4961432;28;20523;-52
2022/07/22 07:57:54;;;;;;;9.52;2.03;;;19.20;99.90;;;;;;4992530;28;20069;-48
2022/07/22 08:00:32;;;;;;;7.88;2.00;;;19.30;99.90;;;;;;5004468;28;20132;-55
2022/07/22 08:02:59;;;;;;;7.25;1.80;;;19.40;99.90;;;;;;4990783;28;20053;-52
2022/07/22 08:05:29;;;;;;;5.10;2.03;;;19.40;99.90;;;;;;4978891;28;20042;-51
2022/07/22 08:07:57;;;;;;;4.57;1.90;;;19.40;99.90;;;;;;5027897;28;20091;-48
2022/07/22 08:10:24;;;;;;;6.47;1.73;;;19.50;99.90;;;;;;4991452;28;20046;-54
2022/07/22 08:12:53;;;;;;;3.78;1.67;;;19.40;99.90;;;;;;5004703;28;20100;-45
2022/07/22 08:15:22;;;;;;;8.15;2.75;;;19.30;99.90;;;;;;5014997;28;20053;-47
2022/07/22 08:17:52;;;;;;;6.50;1.83;;;19.20;99.90;;;;;;4991085;28;20054;-50
2022/07/22 08:20:19;;;;;;;4.43;2.17;;;19.00;99.90;;;;;;5012977;28;20528;-51
2022/07/22 08:22:46;;;;;;;7.38;2.05;;;18.90;99.90;;;;;;4992743;28;20082;-50
2022/07/22 08:25:12;;;;;;;3.65;1.63;;;18.80;99.90;;;;;;5016256;28;20092;-49
2022/07/22 08:27:39;;;;;;;5.32;2.22;;;18.70;99.90;;;;;;4976531;28;20133;-48
2022/07/22 08:30:08;;;;;;;12.15;2.83;;;18.60;99.90;;;;;;4970113;28;20096;-49
2022/07/22 08:32:35;;;;;;;4.70;2.05;;;18.40;99.90;;;;;;5003661;28;20050;-50
2022/07/22 08:35:01;;;;;;;4.20;1.40;;;18.40;99.90;;;;;;4990264;28;20128;-50
2022/07/22 08:37:28;;;;;;;5.25;2.00;;;18.30;99.90;;;;;;4988976;28;20445;-51
2022/07/22 08:39:55;;;;;;;4.28;1.30;;;18.20;99.90;;;;;;4996139;28;20364;-51
2022/07/22 08:42:24;;;;;;;11.60;1.55;;;18.10;99.90;;;;;;4977206;28;20528;-50
2022/07/22 08:44:53;;;;;;;5.95;1.95;;;17.90;99.90;;;;;;5009701;28;20041;-52
2022/07/22 08:47:27;;;;;;;4.80;2.33;;;17.80;99.90;;;;;;5027022;28;20049;-51
2022/07/22 08:49:54;;;;;;;4.95;1.52;;;17.70;99.90;;;;;;4976225;28;20059;-50
2022/07/22 08:52:23;;;;;;;6.05;1.58;;;17.70;99.90;;;;;;5025998;28;20140;-49
2022/07/22 08:54:50;;;;;;;4.40;1.67;;;17.70;99.90;;;;;;5000792;28;20054;-49
2022/07/22 08:57:18;;;;;;;9.85;1.83;;;17.70;99.90;;;;;;4982259;28;20042;-47
2022/07/22 08:59:56;;;;;;;6.07;1.98;;;17.80;99.90;;;;;;5011361;28;20569;-51
2022/07/22 09:02:38;;;;;;;3.80;1.40;;;17.90;99.90;;;;;;5012195;28;20141;-53
2022/07/22 09:05:08;;;;;;;2.45;1.27;;;17.90;99.90;;;;;;4991545;28;20536;-51
2022/07/22 09:07:40;;;;;;;5.20;1.67;;;18.00;99.90;;;;;;5008532;28;20056;-50
2022/07/22 09:10:14;;;;;;;2.97;1.42;;;18.10;99.90;;;;;;5000036;28;20044;-51
2022/07/22 09:13:04;;;;;;;5.68;1.15;;;18.20;99.90;;;;;;5029124;28;20045;-54
2022/07/22 09:15:45;;;;;;;3.60;1.30;;;18.30;99.90;;;;;;5000365;28;20041;-50
2022/07/22 09:18:12;;;;;;;4.38;1.50;;;18.40;99.90;;;;;;5028899;28;20044;-54
2022/07/22 09:20:41;;;;;;;3.45;1.15;;;18.50;99.90;;;;;;5029365;28;20049;-51
2022/07/22 09:23:20;;;;;;;5.90;1.38;;;18.60;99.90;;;;;;5026363;28;20052;-51
2022/07/22 09:25:47;;;;;;;4.03;1.25;;;18.70;99.90;;;;;;5012069;28;20044;-48
2022/07/22 09:28:18;;;;;;;3.25;1.35;;;18.90;99.90;;;;;;5028611;28;20045;-47
2022/07/22 09:30:51;;;;;;;4.90;1.48;;;19.10;99.90;;;;;;5014733;28;20048;-52
2022/07/22 09:33:19;;;;;;;5.10;1.27;;;19.20;99.90;;;;;;5016640;28;20041;-49
2022/07/22 09:35:47;;;;;;;6.00;1.27;;;19.40;99.90;;;;;;4991998;28;20041;-47
2022/07/22 09:38:15;;;;;;;8.00;1.73;;;19.60;99.90;;;;;;5010461;28;20049;-49
2022/07/22 09:40:44;;;;;;;6.05;1.70;;;19.80;99.90;;;;;;5014434;28;20057;-51
2022/07/22 09:43:14;;;;;;;3.17;1.38;;;19.90;99.90;;;;;;4998917;28;20049;-51
2022/07/22 09:45:48;;;;;;;4.22;1.20;;;20.00;99.90;;;;;;5005595;28;20286;-49
2022/07/22 09:48:17;;;;;;;4.90;1.27;;;20.00;99.90;;;;;;5027066;28;20044;-49
2022/07/22 09:50:44;;;;;;;2.33;1.20;;;19.90;99.90;;;;;;5023605;28;20535;-51
2022/07/22 09:53:12;;;;;;;4.72;1.42;;;19.80;99.90;;;;;;5008163;28;20045;-54
2022/07/22 09:55:40;;;;;;;2.90;1.10;;;19.70;99.90;;;;;;5010898;28;20041;-51
2022/07/22 09:58:08;;;;;;;3.63;1.25;;;19.50;99.90;;;;;;5000770;28;20054;-49
2022/07/22 10:00:41;;;;;;;3.72;1.30;;;19.30;99.90;;;;;;5007109;28;20054;-50
2022/07/22 10:03:40;;;;;;;;;;;19.30;99.90;;;;;;4971396;28;20041;-51
2022/07/22 10:06:10;;;;;;;3.92;1.20;;;19.20;99.90;;;;;;4896482;29;19923;-51
2022/07/22 10:08:39;;;;;;;4.93;1.52;;;19.20;99.90;;;;;;4902315;29;20168;-52
2022/07/22 10:11:08;;;;;;;3.42;1.10;;;19.30;99.90;;;;;;4900801;29;20455;-50
2022/07/22 10:13:37;;;;;;;6.22;1.70;;;19.40;99.90;;;;;;4921833;29;20051;-50
2022/07/22 10:16:06;;;;;;;2.95;1.17;;;19.60;99.90;;;;;;4909513;29;20593;-51
2022/07/22 10:18:34;;;;;;;3.20;1.10;;;19.60;99.90;;;;;;4889764;29;20059;-52
2022/07/22 10:21:05;;;;;;;3.75;1.05;;;19.90;99.90;;;;;;4890774;29;20080;-51
2022/07/22 10:23:32;;;;;;;3.35;1.42;;;20.00;99.90;;;;;;4903880;29;20079;-47
2022/07/22 10:26:02;;;;;;;4.32;1.50;;;20.10;99.90;;;;;;4902409;29;20605;-47
2022/07/22 10:28:33;;;;;;;2.83;1.10;;;20.30;99.90;;;;;;4890284;29;20080;-48
2022/07/22 10:31:19;;;;;;;4.55;1.35;;;20.50;99.90;;;;;;4899818;29;20080;-49
2022/07/22 10:33:55;;;;;;;4.22;1.05;;;20.80;99.90;;;;;;4908140;29;20546;-50
2022/07/22 10:36:42;;;;;;;2.58;0.90;;;20.90;99.90;;;;;;4911653;29;20060;-48
2022/07/22 10:39:14;;;;;;;2.13;0.93;;;21.00;99.90;;;;;;4891264;29;20487;-58
2022/07/22 10:41:45;;;;;;;3.17;1.30;;;21.20;99.90;;;;;;4937872;28;20065;-50
2022/07/22 10:44:13;;;;;;;4.37;1.33;;;21.40;99.90;;;;;;5025214;28;20547;-48
2022/07/22 10:46:50;;;;;;;2.72;0.88;;;21.50;99.90;;;;;;4981983;28;20045;-52
2022/07/22 10:49:20;;;;;;;1.95;0.90;;;21.50;99.90;;;;;;4968286;28;20366;-49
2022/07/22 10:52:07;;;;;;;1.83;1.05;;;21.60;99.90;;;;;;4988674;28;20140;-52
2022/07/22 10:54:54;;;;;;;2.65;0.85;;;21.80;99.90;;;;;;5015150;28;20042;-53
2022/07/22 10:57:32;;;;;;;2.03;1.10;;;21.90;99.90;;;;;;5007674;28;20041;-51
2022/07/22 10:59:59;;;;;;;1.70;0.90;;;22.00;99.90;;;;;;4993948;28;20077;-52
2022/07/22 11:02:27;;;;;;;2.78;0.88;;;22.10;99.90;;;;;;5000441;28;20042;-51
2022/07/22 11:04:54;;;;;;;2.78;1.20;;;22.10;99.90;;;;;;4992684;28;20104;-51
2022/07/22 11:07:24;;;;;;;6.03;1.60;;;21.90;99.90;;;;;;5002355;28;20170;-52
2022/07/22 11:09:54;;;;;;;3.95;1.20;;;21.70;99.90;;;;;;4972195;28;20053;-50
2022/07/22 11:12:20;;;;;;;4.28;1.15;;;21.70;99.90;;;;;;4984543;28;20065;-48
2022/07/22 11:14:47;;;;;;;3.75;1.40;;;21.60;99.90;;;;;;4970013;28;20161;-50
2022/07/22 11:17:14;;;;;;;2.45;0.95;;;21.60;99.90;;;;;;4959677;28;20146;-52
2022/07/22 11:19:44;;;;;;;2.30;0.80;;;21.50;99.90;;;;;;4958851;28;20046;-52
2022/07/22 11:22:16;;;;;;;2.20;0.80;;;21.40;99.90;;;;;;4973949;28;20054;-49
2022/07/22 11:24:47;;;;;;;3.25;1.02;;;21.50;99.90;;;;;;4963970;28;20505;-47
2022/07/22 11:27:16;;;;;;;4.38;0.95;;;21.50;99.90;;;;;;4967565;28;20066;-47
2022/07/22 11:29:50;;;;;;;2.00;0.77;;;21.70;99.90;;;;;;4979082;28;20058;-50
2022/07/22 11:32:17;;;;;;;2.75;1.17;;;21.70;99.90;;;;;;4962049;28;20504;-50
2022/07/22 11:34:46;;;;;;;4.78;1.10;;;21.80;99.90;;;;;;4991501;28;20046;-51
2022/07/22 11:37:15;;;;;;;3.08;0.82;;;21.80;99.90;;;;;;4980175;28;20154;-51
2022/07/22 11:39:42;;;;;;;2.08;0.90;;;21.40;99.90;;;;;;4984142;28;20050;-50
2022/07/22 11:42:09;;;;;;;2.72;0.80;;;21.40;99.90;;;;;;5007904;28;20101;-50
2022/07/22 11:44:38;;;;;;;3.95;1.05;;;21.20;99.90;;;;;;4995764;28;20407;-51
2022/07/22 11:47:09;;;;;;;2.03;0.90;;;21.10;99.90;;;;;;4966622;28;20054;-49
2022/07/22 11:49:39;;;;;;;2.65;1.05;;;21.00;99.90;;;;;;4998347;28;20072;-49
2022/07/22 11:52:13;;;;;;;2.63;1.30;;;21.10;99.90;;;;;;4974260;28;20103;-49
2022/07/22 11:54:44;;;;;;;2.83;1.10;;;21.10;99.90;;;;;;4956707;28;21003;-47
2022/07/22 11:57:14;;;;;;;2.80;1.05;;;21.20;99.90;;;;;;4999862;28;20046;-51
2022/07/22 11:59:45;;;;;;;7.63;2.00;;;21.20;99.90;;;;;;5003154;28;20057;-50
2022/07/22 12:02:13;;;;;;;2.75;1.20;;;21.20;99.90;;;;;;5013098;28;20058;-51
2022/07/22 12:04:40;;;;;;;5.75;1.30;;;21.00;99.90;;;;;;5007048;28;20061;-54
2022/07/22 12:07:12;;;;;;;1.92;1.00;;;21.00;99.90;;;;;;5011257;28;20270;-49
2022/07/22 12:09:59;;;;;;;2.20;0.90;;;20.90;99.90;;;;;;4982558;28;20054;-48
2022/07/22 12:12:46;;;;;;;4.35;1.52;;;21.00;99.90;;;;;;4990808;28;20052;-47
2022/07/22 12:15:14;;;;;;;2.88;1.10;;;21.00;99.90;;;;;;4969658;28;20493;-48
2022/07/22 12:17:46;;;;;;;3.28;1.30;;;20.90;99.90;;;;;;5001066;28;20061;-50
2022/07/22 12:20:13;;;;;;;2.55;1.20;;;20.90;99.90;;;;;;5006080;28;20685;-47
2022/07/22 12:22:46;;;;;;;2.42;1.20;;;20.80;99.90;;;;;;5009622;28;20211;-52
2022/07/22 12:25:17;;;;;;;2.67;0.95;;;20.80;99.90;;;;;;5017013;28;20054;-48
2022/07/22 12:28:01;;;;;;;3.50;1.20;;;20.80;99.90;;;;;;5009251;28;20048;-52
2022/07/22 12:30:27;;;;;;;2.45;1.17;;;20.80;99.90;;;;;;5032175;28;20409;-50
2022/07/22 12:33:01;;;;;;;2.85;1.20;;;20.70;99.90;;;;;;5031274;28;20041;-47
2022/07/22 12:35:27;;;;;;;2.25;1.13;;;20.80;99.90;;;;;;5009352;28;20041;-53
2022/07/22 12:37:54;;;;;;;3.28;1.13;;;20.70;99.90;;;;;;5026167;28;20489;-50
2022/07/22 12:40:23;;;;;;;2.95;1.38;;;20.70;99.90;;;;;;5027123;28;20048;-50
2022/07/22 12:43:09;;;;;;;2.65;1.10;;;20.70;99.90;;;;;;5043134;28;20051;-48
2022/07/22 12:45:43;;;;;;;5.10;1.02;;;20.80;99.90;;;;;;5012423;28;20511;-53
2022/07/22 12:48:10;;;;;;;4.47;1.20;;;20.80;99.90;;;;;;5002785;28;20080;-48
2022/07/22 12:50:55;;;;;;;3.60;1.00;;;20.90;99.90;;;;;;5003142;28;20120;-53
2022/07/22 12:53:23;;;;;;;2.60;1.10;;;21.00;99.90;;;;;;4992531;28;20041;-51
2022/07/22 12:56:02;;;;;;;5.38;1.35;;;21.00;99.90;;;;;;4992767;28;20088;-47
2022/07/22 12:58:36;;;;;;;2.03;1.15;;;21.20;99.90;;;;;;5005358;28;20557;-52